sensor_id;sensor_type;location;lat;lon;timestamp;pressure;altitude;pressure_sealevel;temperature;humidity
73633;BME280;61927;50.080;14.418;2022-12-18T00:01:02;100976.59;;;-4.14;75.41
73633;BME280;61927;50.080;14.418;2022-12-18T00:03:42;100981.81;;;-4.12;74.70
73633;BME280;61927;50.080;14.418;2022-12-18T00:06:08;100987.19;;;-4.05;75.18
73633;BME280;61927;50.080;14.418;2022-12-18T00:08:34;100984.59;;;-4.05;74.56
73633;BME280;61927;50.080;14.418;2022-12-18T00:11:08;100988.94;;;-4.04;75.06
73633;BME280;61927;50.080;14.418;2022-12-18T00:13:34;100986.31;;;-4.05;74.72
73633;BME280;61927;50.080;14.418;2022-12-18T00:16:02;100983.53;;;-4.13;74.91
73633;BME280;61927;50.080;14.418;2022-12-18T00:18:28;100984.38;;;-4.14;74.67
73633;BME280;61927;50.080;14.418;2022-12-18T00:20:58;100984.19;;;-4.23;75.28
73633;BME280;61927;50.080;14.418;2022-12-18T00:23:24;100991.00;;;-4.27;75.36
73633;BME280;61927;50.080;14.418;2022-12-18T00:25:49;101004.72;;;-4.32;75.27
73633;BME280;61927;50.080;14.418;2022-12-18T00:28:15;101002.91;;;-4.35;75.10
73633;BME280;61927;50.080;14.418;2022-12-18T00:30:40;101001.03;;;-4.42;74.87
73633;BME280;61927;50.080;14.418;2022-12-18T00:33:06;101017.41;;;-4.43;74.90
73633;BME280;61927;50.080;14.418;2022-12-18T00:35:31;101016.53;;;-4.43;75.58
73633;BME280;61927;50.080;14.418;2022-12-18T00:37:57;101026.91;;;-4.43;75.10
73633;BME280;61927;50.080;14.418;2022-12-18T00:40:23;101028.53;;;-4.47;75.31
73633;BME280;61927;50.080;14.418;2022-12-18T00:42:48;101037.94;;;-4.50;74.85
73633;BME280;61927;50.080;14.418;2022-12-18T00:45:28;101032.59;;;-4.58;74.85
73633;BME280;61927;50.080;14.418;2022-12-18T00:47:54;101027.22;;;-4.66;74.76
73633;BME280;61927;50.080;14.418;2022-12-18T00:50:20;101023.50;;;-4.77;74.82
73633;BME280;61927;50.080;14.418;2022-12-18T00:52:45;101036.28;;;-4.83;75.14
73633;BME280;61927;50.080;14.418;2022-12-18T00:55:11;101036.13;;;-4.89;75.47
73633;BME280;61927;50.080;14.418;2022-12-18T00:57:37;101035.28;;;-4.88;75.05
73633;BME280;61927;50.080;14.418;2022-12-18T01:00:04;101036.28;;;-4.83;75.74
73633;BME280;61927;50.080;14.418;2022-12-18T01:02:30;101038.16;;;-4.77;74.84
73633;BME280;61927;50.080;14.418;2022-12-18T01:04:57;101040.69;;;-4.79;74.46
73633;BME280;61927;50.080;14.418;2022-12-18T01:07:22;101044.19;;;-4.77;74.27
73633;BME280;61927;50.080;14.418;2022-12-18T01:09:48;101045.03;;;-4.78;74.02
73633;BME280;61927;50.080;14.418;2022-12-18T01:12:13;101044.13;;;-4.80;74.67
73633;BME280;61927;50.080;14.418;2022-12-18T01:14:39;101047.47;;;-4.84;73.96
73633;BME280;61927;50.080;14.418;2022-12-18T01:17:04;101043.94;;;-4.88;74.75
73633;BME280;61927;50.080;14.418;2022-12-18T01:19:30;101054.28;;;-4.88;74.20
73633;BME280;61927;50.080;14.418;2022-12-18T01:21:55;101057.66;;;-4.90;73.58
73633;BME280;61927;50.080;14.418;2022-12-18T01:24:21;101067.19;;;-4.89;73.64
73633;BME280;61927;50.080;14.418;2022-12-18T01:26:46;101074.88;;;-4.92;74.52
73633;BME280;61927;50.080;14.418;2022-12-18T01:29:12;101068.00;;;-4.92;74.76
73633;BME280;61927;50.080;14.418;2022-12-18T01:31:38;101057.00;;;-4.83;74.73
73633;BME280;61927;50.080;14.418;2022-12-18T01:34:04;101058.66;;;-4.85;74.72
73633;BME280;61927;50.080;14.418;2022-12-18T01:36:33;101064.66;;;-4.88;74.63
73633;BME280;61927;50.080;14.418;2022-12-18T01:39:00;101062.16;;;-4.83;75.25
73633;BME280;61927;50.080;14.418;2022-12-18T01:41:28;101064.88;;;-4.78;74.63
73633;BME280;61927;50.080;14.418;2022-12-18T01:52:52;101075.13;;;-4.83;74.87
73633;BME280;61927;50.080;14.418;2022-12-18T01:55:20;101069.16;;;-4.80;74.86
73633;BME280;61927;50.080;14.418;2022-12-18T01:57:47;101073.59;;;-4.75;74.74
73633;BME280;61927;50.080;14.418;2022-12-18T02:00:18;101071.94;;;-4.73;75.09
73633;BME280;61927;50.080;14.418;2022-12-18T02:02:45;101072.06;;;-4.68;75.14
73633;BME280;61927;50.080;14.418;2022-12-18T02:05:13;101071.16;;;-4.69;74.32
73633;BME280;61927;50.080;14.418;2022-12-18T02:07:59;101074.63;;;-4.68;74.51
73633;BME280;61927;50.080;14.418;2022-12-18T02:10:31;101078.41;;;-4.56;73.81
73633;BME280;61927;50.080;14.418;2022-12-18T02:18:05;101097.66;;;-4.46;73.60
73633;BME280;61927;50.080;14.418;2022-12-18T02:20:49;101101.13;;;-4.45;74.15
73633;BME280;61927;50.080;14.418;2022-12-18T02:26:27;101098.75;;;-4.36;74.17
73633;BME280;61927;50.080;14.418;2022-12-18T02:31:28;101098.72;;;-4.02;73.28
73633;BME280;61927;50.080;14.418;2022-12-18T02:33:59;101097.25;;;-3.91;72.23
73633;BME280;61927;50.080;14.418;2022-12-18T02:36:27;101099.03;;;-3.88;72.51
73633;BME280;61927;50.080;14.418;2022-12-18T02:38:55;101100.47;;;-4.01;72.13
73633;BME280;61927;50.080;14.418;2022-12-18T02:41:21;101107.97;;;-4.13;72.58
73633;BME280;61927;50.080;14.418;2022-12-18T02:43:55;101104.56;;;-4.10;73.03
73633;BME280;61927;50.080;14.418;2022-12-18T02:46:32;101108.31;;;-3.98;72.95
73633;BME280;61927;50.080;14.418;2022-12-18T03:00:12;101108.81;;;-3.76;72.83
73633;BME280;61927;50.080;14.418;2022-12-18T03:02:50;101113.09;;;-3.78;72.54
73633;BME280;61927;50.080;14.418;2022-12-18T03:06:07;101109.59;;;-3.80;72.56
73633;BME280;61927;50.080;14.418;2022-12-18T03:08:38;101111.19;;;-3.85;72.45
73633;BME280;61927;50.080;14.418;2022-12-18T03:11:07;101114.66;;;-3.85;72.74
73633;BME280;61927;50.080;14.418;2022-12-18T03:13:46;101112.91;;;-3.86;72.58
73633;BME280;61927;50.080;14.418;2022-12-18T03:16:22;101106.97;;;-3.82;72.88
73633;BME280;61927;50.080;14.418;2022-12-18T03:18:54;101114.78;;;-3.80;72.97
73633;BME280;61927;50.080;14.418;2022-12-18T03:21:27;101114.00;;;-3.76;73.10
73633;BME280;61927;50.080;14.418;2022-12-18T03:23:54;101123.72;;;-3.68;73.28
73633;BME280;61927;50.080;14.418;2022-12-18T03:26:24;101122.16;;;-3.60;72.44
73633;BME280;61927;50.080;14.418;2022-12-18T03:28:54;101123.16;;;-3.53;72.44
73633;BME280;61927;50.080;14.418;2022-12-18T03:31:22;101136.03;;;-3.58;72.45
73633;BME280;61927;50.080;14.418;2022-12-18T03:33:54;101126.50;;;-3.59;72.43
73633;BME280;61927;50.080;14.418;2022-12-18T03:36:21;101127.38;;;-3.58;72.46
73633;BME280;61927;50.080;14.418;2022-12-18T03:38:47;101130.00;;;-3.56;72.60
73633;BME280;61927;50.080;14.418;2022-12-18T03:41:19;101126.66;;;-3.51;72.14
73633;BME280;61927;50.080;14.418;2022-12-18T03:44:20;101130.31;;;-3.43;72.05
73633;BME280;61927;50.080;14.418;2022-12-18T03:46:58;101132.13;;;-3.39;71.81
73633;BME280;61927;50.080;14.418;2022-12-18T03:49:36;101130.31;;;-3.43;72.10
73633;BME280;61927;50.080;14.418;2022-12-18T03:54:39;101142.38;;;-3.45;70.62
73633;BME280;61927;50.080;14.418;2022-12-18T03:57:10;101142.13;;;-3.55;70.99
73633;BME280;61927;50.080;14.418;2022-12-18T03:59:38;101135.91;;;-3.64;71.44
73633;BME280;61927;50.080;14.418;2022-12-18T04:02:06;101139.38;;;-3.63;71.37
73633;BME280;61927;50.080;14.418;2022-12-18T04:04:35;101143.69;;;-3.64;71.69
73633;BME280;61927;50.080;14.418;2022-12-18T04:07:04;101146.28;;;-3.64;71.31
73633;BME280;61927;50.080;14.418;2022-12-18T04:09:32;101143.75;;;-3.61;71.40
73633;BME280;61927;50.080;14.418;2022-12-18T04:11:58;101139.38;;;-3.63;71.40
73633;BME280;61927;50.080;14.418;2022-12-18T04:14:24;101145.47;;;-3.61;71.45
73633;BME280;61927;50.080;14.418;2022-12-18T04:16:50;101147.22;;;-3.60;71.76
73633;BME280;61927;50.080;14.418;2022-12-18T04:19:15;101150.50;;;-3.69;71.16
73633;BME280;61927;50.080;14.418;2022-12-18T04:21:41;101151.38;;;-3.68;70.78
73633;BME280;61927;50.080;14.418;2022-12-18T04:24:06;101159.13;;;-3.70;71.25
73633;BME280;61927;50.080;14.418;2022-12-18T04:26:32;101162.69;;;-3.65;71.23
73633;BME280;61927;50.080;14.418;2022-12-18T04:28:58;101154.09;;;-3.62;70.91
73633;BME280;61927;50.080;14.418;2022-12-18T04:31:23;101164.34;;;-3.68;70.71
73633;BME280;61927;50.080;14.418;2022-12-18T04:33:49;101166.94;;;-3.68;71.28
73633;BME280;61927;50.080;14.418;2022-12-18T04:36:14;101169.69;;;-3.61;71.43
73633;BME280;61927;50.080;14.418;2022-12-18T04:38:40;101174.03;;;-3.60;70.92
73633;BME280;61927;50.080;14.418;2022-12-18T04:41:05;101173.97;;;-3.63;70.95
73633;BME280;61927;50.080;14.418;2022-12-18T04:43:31;101166.09;;;-3.67;70.48
73633;BME280;61927;50.080;14.418;2022-12-18T04:46:05;101172.28;;;-3.61;70.77
73633;BME280;61927;50.080;14.418;2022-12-18T04:48:31;101165.31;;;-3.63;71.17
73633;BME280;61927;50.080;14.418;2022-12-18T04:50:57;101165.34;;;-3.62;71.18
73633;BME280;61927;50.080;14.418;2022-12-18T04:53:23;101162.00;;;-3.58;70.74
73633;BME280;61927;50.080;14.418;2022-12-18T04:55:48;101167.13;;;-3.59;71.08
73633;BME280;61927;50.080;14.418;2022-12-18T04:58:14;101159.38;;;-3.58;70.99
73633;BME280;61927;50.080;14.418;2022-12-18T05:00:40;101166.38;;;-3.55;71.07
73633;BME280;61927;50.080;14.418;2022-12-18T05:03:05;101170.88;;;-3.46;71.23
73633;BME280;61927;50.080;14.418;2022-12-18T05:05:31;101170.38;;;-3.30;70.21
73633;BME280;61927;50.080;14.418;2022-12-18T05:07:56;101170.31;;;-3.33;70.09
73633;BME280;61927;50.080;14.418;2022-12-18T05:10:22;101171.06;;;-3.39;70.25
73633;BME280;61927;50.080;14.418;2022-12-18T05:12:48;101176.06;;;-3.46;70.65
73633;BME280;61927;50.080;14.418;2022-12-18T05:15:29;101178.78;;;-3.42;70.51
73633;BME280;61927;50.080;14.418;2022-12-18T05:17:56;101179.59;;;-3.44;70.53
73633;BME280;61927;50.080;14.418;2022-12-18T05:20:22;101190.94;;;-3.39;70.86
73633;BME280;61927;50.080;14.418;2022-12-18T05:22:48;101197.19;;;-3.31;70.74
73633;BME280;61927;50.080;14.418;2022-12-18T05:25:13;101192.13;;;-3.25;70.79
73633;BME280;61927;50.080;14.418;2022-12-18T05:27:39;101189.47;;;-3.28;70.54
73633;BME280;61927;50.080;14.418;2022-12-18T05:30:05;101199.03;;;-3.26;71.05
73633;BME280;61927;50.080;14.418;2022-12-18T05:32:30;101198.28;;;-3.20;70.68
73633;BME280;61927;50.080;14.418;2022-12-18T05:34:56;101193.03;;;-3.23;70.68
73633;BME280;61927;50.080;14.418;2022-12-18T05:37:22;101197.28;;;-3.27;70.23
73633;BME280;61927;50.080;14.418;2022-12-18T05:39:48;101199.81;;;-3.30;70.59
73633;BME280;61927;50.080;14.418;2022-12-18T05:42:14;101196.34;;;-3.30;71.13
73633;BME280;61927;50.080;14.418;2022-12-18T05:44:39;101200.63;;;-3.32;70.58
73633;BME280;61927;50.080;14.418;2022-12-18T05:47:05;101206.63;;;-3.35;71.81
73633;BME280;61927;50.080;14.418;2022-12-18T05:49:30;101204.91;;;-3.34;71.38
73633;BME280;61927;50.080;14.418;2022-12-18T05:51:56;101213.41;;;-3.40;71.38
73633;BME280;61927;50.080;14.418;2022-12-18T05:54:21;101217.00;;;-3.35;71.84
73633;BME280;61927;50.080;14.418;2022-12-18T05:56:47;101211.94;;;-3.29;71.32
73633;BME280;61927;50.080;14.418;2022-12-18T05:59:13;101216.38;;;-3.24;71.17
73633;BME280;61927;50.080;14.418;2022-12-18T06:01:38;101226.75;;;-3.24;71.20
73633;BME280;61927;50.080;14.418;2022-12-18T06:04:04;101231.88;;;-3.28;71.13
73633;BME280;61927;50.080;14.418;2022-12-18T06:06:30;101239.63;;;-3.29;70.88
73633;BME280;61927;50.080;14.418;2022-12-18T06:08:55;101244.63;;;-3.37;70.68
73633;BME280;61927;50.080;14.418;2022-12-18T06:11:24;101236.78;;;-3.40;71.25
73633;BME280;61927;50.080;14.418;2022-12-18T06:13:50;101234.25;;;-3.37;70.63
73633;BME280;61927;50.080;14.418;2022-12-18T06:16:17;101239.50;;;-3.34;70.39
73633;BME280;61927;50.080;14.418;2022-12-18T06:18:42;101242.94;;;-3.35;69.62
73633;BME280;61927;50.080;14.418;2022-12-18T06:21:08;101242.06;;;-3.35;70.10
73633;BME280;61927;50.080;14.418;2022-12-18T06:23:33;101241.09;;;-3.40;70.36
73633;BME280;61927;50.080;14.418;2022-12-18T06:26:06;101248.78;;;-3.45;70.59
73633;BME280;61927;50.080;14.418;2022-12-18T06:28:31;101239.97;;;-3.51;70.13
73633;BME280;61927;50.080;14.418;2022-12-18T06:30:57;101252.00;;;-3.55;71.43
73633;BME280;61927;50.080;14.418;2022-12-18T06:33:26;101257.97;;;-3.58;70.73
73633;BME280;61927;50.080;14.418;2022-12-18T06:35:52;101252.75;;;-3.59;71.66
73633;BME280;61927;50.080;14.418;2022-12-18T06:38:18;101256.34;;;-3.54;71.54
73633;BME280;61927;50.080;14.418;2022-12-18T06:40:43;101253.94;;;-3.46;72.21
73633;BME280;61927;50.080;14.418;2022-12-18T06:43:09;101268.75;;;-3.41;71.56
73633;BME280;61927;50.080;14.418;2022-12-18T06:45:34;101270.53;;;-3.40;72.11
73633;BME280;61927;50.080;14.418;2022-12-18T06:48:00;101283.53;;;-3.38;72.14
73633;BME280;61927;50.080;14.418;2022-12-18T06:50:25;101285.22;;;-3.40;72.32
73633;BME280;61927;50.080;14.418;2022-12-18T06:52:51;101284.13;;;-3.50;72.58
73633;BME280;61927;50.080;14.418;2022-12-18T06:55:17;101288.47;;;-3.49;73.06
73633;BME280;61927;50.080;14.418;2022-12-18T06:57:42;101288.56;;;-3.44;73.13
73633;BME280;61927;50.080;14.418;2022-12-18T07:00:09;101301.59;;;-3.43;73.37
73633;BME280;61927;50.080;14.418;2022-12-18T07:02:35;101303.38;;;-3.40;73.99
73633;BME280;61927;50.080;14.418;2022-12-18T07:05:01;101302.50;;;-3.41;73.44
73633;BME280;61927;50.080;14.418;2022-12-18T07:07:26;101305.81;;;-3.46;73.70
73633;BME280;61927;50.080;14.418;2022-12-18T07:09:52;101306.69;;;-3.46;73.90
73633;BME280;61927;50.080;14.418;2022-12-18T07:12:17;101306.69;;;-3.46;74.03
73633;BME280;61927;50.080;14.418;2022-12-18T07:14:43;101309.94;;;-3.54;74.21
73633;BME280;61927;50.080;14.418;2022-12-18T07:17:09;101321.16;;;-3.55;74.64
73633;BME280;61927;50.080;14.418;2022-12-18T07:19:34;101313.56;;;-3.48;74.67
73633;BME280;61927;50.080;14.418;2022-12-18T07:22:00;101315.78;;;-3.29;74.32
73633;BME280;61927;50.080;14.418;2022-12-18T07:24:26;101314.16;;;-3.23;72.92
73633;BME280;61927;50.080;14.418;2022-12-18T07:26:51;101320.75;;;-3.38;72.98
73633;BME280;61927;50.080;14.418;2022-12-18T07:29:17;101325.78;;;-3.44;73.56
73633;BME280;61927;50.080;14.418;2022-12-18T07:31:43;101322.28;;;-3.46;73.60
73633;BME280;61927;50.080;14.418;2022-12-18T07:34:12;101330.22;;;-3.40;73.54
73633;BME280;61927;50.080;14.418;2022-12-18T07:36:38;101344.25;;;-3.32;73.66
73633;BME280;61927;50.080;14.418;2022-12-18T07:39:04;101347.00;;;-3.26;73.80
73633;BME280;61927;50.080;14.418;2022-12-18T07:41:29;101344.50;;;-3.21;73.26
73633;BME280;61927;50.080;14.418;2022-12-18T07:43:55;101332.53;;;-3.16;73.25
73633;BME280;61927;50.080;14.418;2022-12-18T07:46:20;101338.59;;;-3.15;72.83
73633;BME280;61927;50.080;14.418;2022-12-18T07:48:46;101348.91;;;-3.18;72.56
73633;BME280;61927;50.080;14.418;2022-12-18T07:51:12;101354.06;;;-3.20;72.77
73633;BME280;61927;50.080;14.418;2022-12-18T07:53:38;101355.81;;;-3.19;72.64
73633;BME280;61927;50.080;14.418;2022-12-18T07:56:07;101359.41;;;-3.14;73.28
73633;BME280;61927;50.080;14.418;2022-12-18T07:58:33;101365.75;;;-3.01;72.69
73633;BME280;61927;50.080;14.418;2022-12-18T08:01:07;101363.59;;;-3.19;72.27
73633;BME280;61927;50.080;14.418;2022-12-18T08:03:33;101367.88;;;-3.21;73.14
73633;BME280;61927;50.080;14.418;2022-12-18T08:06:03;101364.25;;;-3.28;73.65
73633;BME280;61927;50.080;14.418;2022-12-18T08:08:29;101360.72;;;-3.31;72.76
73633;BME280;61927;50.080;14.418;2022-12-18T08:10:58;101357.09;;;-3.38;73.27
73633;BME280;61927;50.080;14.418;2022-12-18T08:13:24;101360.59;;;-3.36;73.45
73633;BME280;61927;50.080;14.418;2022-12-18T08:16:03;101367.72;;;-3.27;73.80
73633;BME280;61927;50.080;14.418;2022-12-18T08:18:29;101371.28;;;-3.23;72.74
73633;BME280;61927;50.080;14.418;2022-12-18T08:21:10;101363.81;;;-3.10;72.45
73633;BME280;61927;50.080;14.418;2022-12-18T08:23:36;101363.09;;;-3.04;71.70
73633;BME280;61927;50.080;14.418;2022-12-18T08:26:01;101357.75;;;-3.10;71.54
73633;BME280;61927;50.080;14.418;2022-12-18T08:28:27;101352.78;;;-3.01;71.58
73633;BME280;61927;50.080;14.418;2022-12-18T08:30:52;101354.69;;;-2.94;70.84
73633;BME280;61927;50.080;14.418;2022-12-18T08:33:18;101366.53;;;-3.05;70.47
73633;BME280;61927;50.080;14.418;2022-12-18T08:35:43;101366.25;;;-3.17;71.58
73633;BME280;61927;50.080;14.418;2022-12-18T08:38:09;101366.34;;;-3.13;71.96
73633;BME280;61927;50.080;14.418;2022-12-18T08:40:34;101376.84;;;-3.08;71.18
73633;BME280;61927;50.080;14.418;2022-12-18T08:43:00;101382.19;;;-3.02;71.02
73633;BME280;61927;50.080;14.418;2022-12-18T08:45:44;101375.16;;;-3.06;71.30
73633;BME280;61927;50.080;14.418;2022-12-18T08:48:09;101376.63;;;-3.17;70.36
73633;BME280;61927;50.080;14.418;2022-12-18T08:50:35;101359.09;;;-3.26;71.03
73633;BME280;61927;50.080;14.418;2022-12-18T08:53:01;101376.25;;;-3.33;70.43
73633;BME280;61927;50.080;14.418;2022-12-18T08:55:27;101388.88;;;-3.46;70.90
73633;BME280;61927;50.080;14.418;2022-12-18T08:57:52;101387.19;;;-3.44;71.04
73633;BME280;61927;50.080;14.418;2022-12-18T09:00:18;101370.84;;;-3.40;71.31
73633;BME280;61927;50.080;14.418;2022-12-18T09:02:43;101379.69;;;-3.34;71.12
73633;BME280;61927;50.080;14.418;2022-12-18T09:05:09;101381.34;;;-3.36;71.17
73633;BME280;61927;50.080;14.418;2022-12-18T09:07:35;101383.63;;;-3.48;70.48
73633;BME280;61927;50.080;14.418;2022-12-18T09:10:00;101387.22;;;-3.43;71.10
73633;BME280;61927;50.080;14.418;2022-12-18T09:12:26;101374.25;;;-3.43;71.67
73633;BME280;61927;50.080;14.418;2022-12-18T09:14:52;101366.53;;;-3.40;71.83
73633;BME280;61927;50.080;14.418;2022-12-18T09:17:17;101363.91;;;-3.41;71.72
73633;BME280;61927;50.080;14.418;2022-12-18T09:19:43;101365.75;;;-3.37;72.07
73633;BME280;61927;50.080;14.418;2022-12-18T09:22:09;101366.59;;;-3.38;72.09
73633;BME280;61927;50.080;14.418;2022-12-18T09:24:35;101383.63;;;-3.48;72.61
73633;BME280;61927;50.080;14.418;2022-12-18T09:27:00;101388.81;;;-3.48;72.32
73633;BME280;61927;50.080;14.418;2022-12-18T09:29:26;101381.16;;;-3.43;72.51
73633;BME280;61927;50.080;14.418;2022-12-18T09:31:52;101369.09;;;-3.41;71.75
73633;BME280;61927;50.080;14.418;2022-12-18T09:34:17;101387.19;;;-3.44;71.85
73633;BME280;61927;50.080;14.418;2022-12-18T09:36:43;101374.41;;;-3.37;72.42
73633;BME280;61927;50.080;14.418;2022-12-18T09:39:09;101381.47;;;-3.31;70.93
73633;BME280;61927;50.080;14.418;2022-12-18T09:41:51;101384.88;;;-3.34;71.07
73633;BME280;61927;50.080;14.418;2022-12-18T09:44:24;101388.47;;;-3.29;70.50
73633;BME280;61927;50.080;14.418;2022-12-18T09:49:26;101404.88;;;-3.30;69.96
73633;BME280;61927;50.080;14.418;2022-12-18T09:54:32;101418.25;;;-3.47;71.36
73633;BME280;61927;50.080;14.418;2022-12-18T09:56:58;101430.38;;;-3.46;70.62
73633;BME280;61927;50.080;14.418;2022-12-18T09:59:31;101427.75;;;-3.48;70.95
73633;BME280;61927;50.080;14.418;2022-12-18T10:01:57;101434.41;;;-3.58;70.98
73633;BME280;61927;50.080;14.418;2022-12-18T10:04:24;101440.28;;;-3.65;71.31
73633;BME280;61927;50.080;14.418;2022-12-18T10:07:00;101426.59;;;-3.59;71.71
73633;BME280;61927;50.080;14.418;2022-12-18T10:09:29;101418.84;;;-3.58;71.28
73633;BME280;61927;50.080;14.418;2022-12-18T10:23:08;101406.22;;;-3.77;72.68
73633;BME280;61927;50.080;14.418;2022-12-18T10:26:03;101403.75;;;-3.72;72.40
73633;BME280;61927;50.080;14.418;2022-12-18T10:28:30;101400.44;;;-3.67;72.23
73633;BME280;61927;50.080;14.418;2022-12-18T10:30:58;101394.53;;;-3.61;71.95
73633;BME280;61927;50.080;14.418;2022-12-18T10:33:28;101391.97;;;-3.60;71.74
73633;BME280;61927;50.080;14.418;2022-12-18T10:35:54;101382.44;;;-3.61;71.91
73633;BME280;61927;50.080;14.418;2022-12-18T10:38:26;101385.25;;;-3.53;71.56
73633;BME280;61927;50.080;14.418;2022-12-18T10:43:36;101371.69;;;-3.41;70.70
73633;BME280;61927;50.080;14.418;2022-12-18T10:48:37;101356.88;;;-3.45;70.85
73633;BME280;61927;50.080;14.418;2022-12-18T10:51:06;101360.47;;;-3.40;70.19
73633;BME280;61927;50.080;14.418;2022-12-18T10:53:35;101351.81;;;-3.41;70.69
73633;BME280;61927;50.080;14.418;2022-12-18T10:56:03;101350.59;;;-3.20;71.87
73633;BME280;61927;50.080;14.418;2022-12-18T10:58:35;101347.31;;;-3.12;69.79
73633;BME280;61927;50.080;14.418;2022-12-18T11:01:17;101348.56;;;-3.32;69.44
73633;BME280;61927;50.080;14.418;2022-12-18T11:04:08;101348.00;;;-3.55;69.95
73633;BME280;61927;50.080;14.418;2022-12-18T11:06:33;101344.41;;;-3.60;70.25
73633;BME280;61927;50.080;14.418;2022-12-18T11:09:18;101338.44;;;-3.56;70.38
73633;BME280;61927;50.080;14.418;2022-12-18T11:11:49;101346.31;;;-3.53;70.14
73633;BME280;61927;50.080;14.418;2022-12-18T11:16:51;101338.59;;;-3.50;69.95
73633;BME280;61927;50.080;14.418;2022-12-18T11:21:56;101336.47;;;-3.32;69.66
73633;BME280;61927;50.080;14.418;2022-12-18T11:26:54;101344.50;;;-3.21;69.35
73633;BME280;61927;50.080;14.418;2022-12-18T11:29:28;101340.13;;;-3.23;69.31
73633;BME280;61927;50.080;14.418;2022-12-18T11:34:46;101341.41;;;-3.42;68.26
73633;BME280;61927;50.080;14.418;2022-12-18T11:37:15;101332.72;;;-3.43;69.52
73633;BME280;61927;50.080;14.418;2022-12-18T11:39:56;101341.25;;;-3.48;69.68
73633;BME280;61927;50.080;14.418;2022-12-18T11:43:07;101338.94;;;-3.71;68.80
73633;BME280;61927;50.080;14.418;2022-12-18T11:45:52;101338.63;;;-3.83;70.42
73633;BME280;61927;50.080;14.418;2022-12-18T11:48:22;101350.63;;;-3.86;70.43
73633;BME280;61927;50.080;14.418;2022-12-18T11:53:17;101346.53;;;-3.78;70.62
73633;BME280;61927;50.080;14.418;2022-12-18T11:56:03;101342.81;;;-3.55;71.32
73633;BME280;61927;50.080;14.418;2022-12-18T11:58:45;101340.97;;;-3.24;70.24
73633;BME280;61927;50.080;14.418;2022-12-18T12:04:07;101344.72;;;-3.12;68.81
73633;BME280;61927;50.080;14.418;2022-12-18T12:06:53;101343.25;;;-3.01;68.40
73633;BME280;61927;50.080;14.418;2022-12-18T12:12:24;101346.34;;;-3.17;67.64
73633;BME280;61927;50.080;14.418;2022-12-18T12:15:10;101348.75;;;-3.24;68.91
73633;BME280;61927;50.080;14.418;2022-12-18T12:20:25;101351.25;;;-3.29;68.82
73633;BME280;61927;50.080;14.418;2022-12-18T12:23:05;101344.88;;;-3.42;68.61
73633;BME280;61927;50.080;14.418;2022-12-18T12:25:52;101333.38;;;-3.51;69.35
73633;BME280;61927;50.080;14.418;2022-12-18T12:34:16;101339.03;;;-3.33;68.26
73633;BME280;61927;50.080;14.418;2022-12-18T12:37:03;101355.66;;;-3.60;68.98
73633;BME280;61927;50.080;14.418;2022-12-18T12:39:37;101360.69;;;-3.66;70.13
73633;BME280;61927;50.080;14.418;2022-12-18T12:42:05;101360.78;;;-3.63;70.72
73633;BME280;61927;50.080;14.418;2022-12-18T12:44:55;101355.94;;;-3.49;71.00
73633;BME280;61927;50.080;14.418;2022-12-18T12:47:29;101356.00;;;-3.46;70.42
73633;BME280;61927;50.080;14.418;2022-12-18T12:49:56;101353.75;;;-3.32;70.86
73633;BME280;61927;50.080;14.418;2022-12-18T12:52:36;101358.19;;;-3.28;69.90
73633;BME280;61927;50.080;14.418;2022-12-18T12:55:07;101359.28;;;-3.18;69.49
73633;BME280;61927;50.080;14.418;2022-12-18T12:57:42;101363.69;;;-3.16;69.66
73633;BME280;61927;50.080;14.418;2022-12-18T13:00:16;101369.91;;;-3.09;69.81
73633;BME280;61927;50.080;14.418;2022-12-18T13:02:48;101366.28;;;-3.16;68.95
73633;BME280;61927;50.080;14.418;2022-12-18T13:08:09;101369.16;;;-3.40;70.00
73633;BME280;61927;50.080;14.418;2022-12-18T13:10:41;101370.97;;;-3.36;70.14
73633;BME280;61927;50.080;14.418;2022-12-18T13:13:12;101367.56;;;-3.33;69.91
73633;BME280;61927;50.080;14.418;2022-12-18T13:15:43;101372.88;;;-3.29;69.82
73633;BME280;61927;50.080;14.418;2022-12-18T13:21:20;101369.03;;;-3.44;70.40
73633;BME280;61927;50.080;14.418;2022-12-18T13:23:29;101356.44;;;-3.29;70.62
73633;BME280;61927;50.080;14.418;2022-12-18T13:25:56;101354.13;;;-3.17;69.95
73633;BME280;61927;50.080;14.418;2022-12-18T13:31:01;101357.47;;;-3.22;70.04
73633;BME280;61927;50.080;14.418;2022-12-18T13:33:36;101352.25;;;-3.22;69.57
73633;BME280;61927;50.080;14.418;2022-12-18T13:36:13;101345.28;;;-3.25;70.54
73633;BME280;61927;50.080;14.418;2022-12-18T13:38:41;101344.63;;;-3.16;70.45
73633;BME280;61927;50.080;14.418;2022-12-18T13:43:44;101347.53;;;-3.03;69.76
73633;BME280;61927;50.080;14.418;2022-12-18T13:46:24;101338.06;;;-3.01;70.39
73633;BME280;61927;50.080;14.418;2022-12-18T13:48:55;101323.66;;;-2.88;71.42
73633;BME280;61927;50.080;14.418;2022-12-18T13:51:21;101337.47;;;-2.89;70.22
73633;BME280;61927;50.080;14.418;2022-12-18T13:53:54;101347.09;;;-2.85;70.34
73633;BME280;61927;50.080;14.418;2022-12-18T13:56:29;101342.97;;;-2.75;69.94
73633;BME280;61927;50.080;14.418;2022-12-18T13:59:10;101353.13;;;-2.86;69.58
73633;BME280;61927;50.080;14.418;2022-12-18T14:01:45;101352.81;;;-3.00;69.50
73633;BME280;61927;50.080;14.418;2022-12-18T14:04:18;101356.63;;;-3.21;70.02
73633;BME280;61927;50.080;14.418;2022-12-18T14:06:43;101366.16;;;-3.20;70.98
73633;BME280;61927;50.080;14.418;2022-12-18T14:09:21;101362.66;;;-3.22;69.94
73633;BME280;61927;50.080;14.418;2022-12-18T14:11:49;101363.31;;;-3.31;70.20
73633;BME280;61927;50.080;14.418;2022-12-18T14:14:17;101360.38;;;-3.45;70.72
73633;BME280;61927;50.080;14.418;2022-12-18T14:16:44;101366.34;;;-3.47;70.92
73633;BME280;61927;50.080;14.418;2022-12-18T14:19:16;101382.59;;;-3.54;70.44
73633;BME280;61927;50.080;14.418;2022-12-18T14:21:47;101385.84;;;-3.63;70.73
73633;BME280;61927;50.080;14.418;2022-12-18T14:24:16;101384.97;;;-3.64;71.59